sensor_id;sensor_type;location;lat;lon;timestamp;pressure;altitude;pressure_sealevel;temperature;humidity
9764;BME280;4921;43.214;27.936;2024-03-17T00:01:10;101504.56;;;6.60;74.38
9764;BME280;4921;43.214;27.936;2024-03-17T00:03:35;101502.44;;;6.57;73.09
9764;BME280;4921;43.214;27.936;2024-03-17T00:06:01;101499.41;;;6.59;73.23
9764;BME280;4921;43.214;27.936;2024-03-17T00:08:27;101502.91;;;6.19;74.50
9764;BME280;4921;43.214;27.936;2024-03-17T00:10:54;101486.91;;;6.39;74.37
9764;BME280;4921;43.214;27.936;2024-03-17T00:13:23;101505.19;;;6.71;72.77
9764;BME280;4921;43.214;27.936;2024-03-17T00:15:50;101498.00;;;6.75;72.46
9764;BME280;4921;43.214;27.936;2024-03-17T00:18:16;101506.63;;;6.82;72.00
9764;BME280;4921;43.214;27.936;2024-03-17T00:20:42;101497.09;;;6.93;72.67
9764;BME280;4921;43.214;27.936;2024-03-17T00:23:08;101493.84;;;6.91;71.88
9764;BME280;4921;43.214;27.936;2024-03-17T00:25:35;101489.59;;;6.71;72.76
9764;BME280;4921;43.214;27.936;2024-03-17T00:28:01;101495.75;;;6.36;74.03
9764;BME280;4921;43.214;27.936;2024-03-17T00:30:27;101498.16;;;6.38;73.17
9764;BME280;4921;43.214;27.936;2024-03-17T00:32:53;101504.34;;;6.43;73.15
9764;BME280;4921;43.214;27.936;2024-03-17T00:35:18;101502.66;;;6.61;73.15
9764;BME280;4921;43.214;27.936;2024-03-17T00:37:47;101500.63;;;6.53;73.76
9764;BME280;4921;43.214;27.936;2024-03-17T00:40:13;101490.72;;;6.11;74.58
9764;BME280;4921;43.214;27.936;2024-03-17T00:42:39;101495.13;;;6.26;74.46
9764;BME280;4921;43.214;27.936;2024-03-17T00:45:06;101501.22;;;6.50;72.76
9764;BME280;4921;43.214;27.936;2024-03-17T00:47:32;101492.72;;;6.51;72.70
9764;BME280;4921;43.214;27.936;2024-03-17T00:49:58;101501.47;;;6.67;72.65
9764;BME280;4921;43.214;27.936;2024-03-17T00:52:23;101496.78;;;6.67;72.08
9764;BME280;4921;43.214;27.936;2024-03-17T00:54:49;101497.50;;;6.73;72.01
9764;BME280;4921;43.214;27.936;2024-03-17T00:57:15;101495.06;;;6.71;72.01
9764;BME280;4921;43.214;27.936;2024-03-17T00:59:42;101486.84;;;6.58;71.31
9764;BME280;4921;43.214;27.936;2024-03-17T01:02:10;101494.97;;;6.63;72.85
9764;BME280;4921;43.214;27.936;2024-03-17T01:04:37;101487.94;;;6.30;73.80
9764;BME280;4921;43.214;27.936;2024-03-17T01:07:03;101496.13;;;6.30;73.26
9764;BME280;4921;43.214;27.936;2024-03-17T01:09:29;101486.69;;;6.09;73.61
9764;BME280;4921;43.214;27.936;2024-03-17T01:11:54;101489.97;;;5.74;74.68
9764;BME280;4921;43.214;27.936;2024-03-17T01:14:21;101487.53;;;5.91;73.55
9764;BME280;4921;43.214;27.936;2024-03-17T01:16:46;101494.47;;;6.15;72.57
9764;BME280;4921;43.214;27.936;2024-03-17T01:19:12;101479.91;;;6.20;72.14
9764;BME280;4921;43.214;27.936;2024-03-17T01:21:37;101490.66;;;5.84;73.83
9764;BME280;4921;43.214;27.936;2024-03-17T01:24:03;101481.63;;;5.46;75.26
9764;BME280;4921;43.214;27.936;2024-03-17T01:26:28;101480.22;;;5.30;76.52
9764;BME280;4921;43.214;27.936;2024-03-17T01:28:54;101477.72;;;5.52;75.69
9764;BME280;4921;43.214;27.936;2024-03-17T01:31:19;101478.00;;;5.70;75.24
9764;BME280;4921;43.214;27.936;2024-03-17T01:33:45;101478.13;;;5.97;73.13
9764;BME280;4921;43.214;27.936;2024-03-17T01:36:12;101474.81;;;6.00;73.50
9764;BME280;4921;43.214;27.936;2024-03-17T01:38:37;101471.13;;;5.91;74.09
9764;BME280;4921;43.214;27.936;2024-03-17T01:41:03;101469.84;;;6.02;73.54
9764;BME280;4921;43.214;27.936;2024-03-17T01:43:30;101477.88;;;6.12;72.63
9764;BME280;4921;43.214;27.936;2024-03-17T01:45:56;101463.06;;;6.13;73.07
9764;BME280;4921;43.214;27.936;2024-03-17T01:48:23;101460.06;;;6.14;72.84
9764;BME280;4921;43.214;27.936;2024-03-17T01:50:51;101462.50;;;6.16;73.36
9764;BME280;4921;43.214;27.936;2024-03-17T01:53:18;101461.56;;;6.20;72.52
9764;BME280;4921;43.214;27.936;2024-03-17T01:55:46;101456.69;;;6.04;72.54
9764;BME280;4921;43.214;27.936;2024-03-17T01:58:12;101462.66;;;6.06;73.16
9764;BME280;4921;43.214;27.936;2024-03-17T02:00:39;101464.28;;;6.07;73.06
9764;BME280;4921;43.214;27.936;2024-03-17T02:03:06;101470.38;;;6.04;73.51
9764;BME280;4921;43.214;27.936;2024-03-17T02:05:32;101473.38;;;6.02;73.72
9764;BME280;4921;43.214;27.936;2024-03-17T02:07:59;101456.72;;;5.85;73.57
9764;BME280;4921;43.214;27.936;2024-03-17T02:10:25;101455.75;;;5.95;72.31
9764;BME280;4921;43.214;27.936;2024-03-17T02:12:51;101461.13;;;6.00;72.99
9764;BME280;4921;43.214;27.936;2024-03-17T02:15:17;101464.38;;;6.02;72.85
9764;BME280;4921;43.214;27.936;2024-03-17T02:17:43;101464.91;;;6.04;73.01
9764;BME280;4921;43.214;27.936;2024-03-17T02:20:09;101464.38;;;6.02;73.35
9764;BME280;4921;43.214;27.936;2024-03-17T02:22:39;101460.63;;;5.98;72.36
9764;BME280;4921;43.214;27.936;2024-03-17T02:25:05;101458.19;;;5.96;73.12
9764;BME280;4921;43.214;27.936;2024-03-17T02:27:35;101461.25;;;6.08;73.32
9764;BME280;4921;43.214;27.936;2024-03-17T02:30:02;101455.25;;;6.06;72.83
9764;BME280;4921;43.214;27.936;2024-03-17T02:32:28;101468.94;;;6.06;73.26
9764;BME280;4921;43.214;27.936;2024-03-17T02:34:53;101450.72;;;6.02;72.76
9764;BME280;4921;43.214;27.936;2024-03-17T02:37:20;101438.31;;;5.91;72.65
9764;BME280;4921;43.214;27.936;2024-03-17T02:39:45;101450.50;;;5.98;72.28
9764;BME280;4921;43.214;27.936;2024-03-17T02:42:11;101446.00;;;5.89;73.14
9764;BME280;4921;43.214;27.936;2024-03-17T02:44:38;101435.91;;;5.71;73.19
9764;BME280;4921;43.214;27.936;2024-03-17T02:47:04;101445.03;;;5.80;72.61
9764;BME280;4921;43.214;27.936;2024-03-17T02:49:31;101436.84;;;5.80;73.14
9764;BME280;4921;43.214;27.936;2024-03-17T02:52:03;101440.34;;;5.85;73.67
9764;BME280;4921;43.214;27.936;2024-03-17T02:54:30;101435.22;;;5.79;72.90
9764;BME280;4921;43.214;27.936;2024-03-17T02:56:55;101442.22;;;5.52;74.72
9764;BME280;4921;43.214;27.936;2024-03-17T02:59:21;101437.50;;;5.39;74.69
9764;BME280;4921;43.214;27.936;2024-03-17T03:01:46;101436.97;;;5.37;75.43
9764;BME280;4921;43.214;27.936;2024-03-17T03:04:12;101436.63;;;5.44;75.28
9764;BME280;4921;43.214;27.936;2024-03-17T03:06:38;101439.63;;;5.61;74.47
9764;BME280;4921;43.214;27.936;2024-03-17T03:09:04;101444.25;;;5.60;73.31
9764;BME280;4921;43.214;27.936;2024-03-17T03:11:35;101440.16;;;5.44;75.14
9764;BME280;4921;43.214;27.936;2024-03-17T03:14:01;101428.78;;;5.37;74.88
9764;BME280;4921;43.214;27.936;2024-03-17T03:16:27;101428.34;;;5.49;74.30
9764;BME280;4921;43.214;27.936;2024-03-17T03:18:53;101445.09;;;5.61;73.60
9764;BME280;4921;43.214;27.936;2024-03-17T03:21:19;101455.78;;;5.57;74.19
9764;BME280;4921;43.214;27.936;2024-03-17T03:23:47;101443.41;;;5.46;74.99
9764;BME280;4921;43.214;27.936;2024-03-17T03:26:13;101453.38;;;5.56;74.67
9764;BME280;4921;43.214;27.936;2024-03-17T03:28:39;101454.59;;;5.63;73.80
9764;BME280;4921;43.214;27.936;2024-03-17T03:31:04;101457.28;;;5.69;74.64
9764;BME280;4921;43.214;27.936;2024-03-17T03:33:30;101459.41;;;5.53;74.43
9764;BME280;4921;43.214;27.936;2024-03-17T03:35:56;101456.44;;;5.68;73.79
9764;BME280;4921;43.214;27.936;2024-03-17T03:38:22;101458.28;;;5.73;74.00
9764;BME280;4921;43.214;27.936;2024-03-17T03:40:48;101456.66;;;5.72;74.13
9764;BME280;4921;43.214;27.936;2024-03-17T03:43:14;101461.88;;;5.54;73.86
9764;BME280;4921;43.214;27.936;2024-03-17T03:45:40;101474.03;;;5.43;74.53
9764;BME280;4921;43.214;27.936;2024-03-17T03:48:06;101461.28;;;5.20;74.65
9764;BME280;4921;43.214;27.936;2024-03-17T03:50:34;101470.84;;;4.99;75.73
9764;BME280;4921;43.214;27.936;2024-03-17T03:52:59;101472.63;;;5.27;74.35
9764;BME280;4921;43.214;27.936;2024-03-17T03:55:25;101465.84;;;5.43;73.80
9764;BME280;4921;43.214;27.936;2024-03-17T03:57:50;101467.47;;;5.44;74.47
9764;BME280;4921;43.214;27.936;2024-03-17T04:00:20;101458.53;;;5.20;75.39
9764;BME280;4921;43.214;27.936;2024-03-17T04:02:52;101464.38;;;5.32;74.67
9764;BME280;4921;43.214;27.936;2024-03-17T04:05:19;101470.78;;;5.41;74.03
9764;BME280;4921;43.214;27.936;2024-03-17T04:07:46;101472.13;;;5.25;74.59
9764;BME280;4921;43.214;27.936;2024-03-17T04:10:13;101472.84;;;5.31;75.12
9764;BME280;4921;43.214;27.936;2024-03-17T04:12:39;101476.47;;;5.45;74.40
9764;BME280;4921;43.214;27.936;2024-03-17T04:15:05;101476.69;;;5.48;74.07
9764;BME280;4921;43.214;27.936;2024-03-17T04:17:32;101477.44;;;5.54;73.23
9764;BME280;4921;43.214;27.936;2024-03-17T04:19:58;101483.13;;;5.57;74.03
9764;BME280;4921;43.214;27.936;2024-03-17T04:22:24;101480.59;;;5.61;73.98
9764;BME280;4921;43.214;27.936;2024-03-17T04:24:50;101485.53;;;5.59;73.43
9764;BME280;4921;43.214;27.936;2024-03-17T04:27:25;101469.53;;;5.52;74.16
9764;BME280;4921;43.214;27.936;2024-03-17T04:29:55;101477.44;;;5.54;73.16
9764;BME280;4921;43.214;27.936;2024-03-17T04:32:21;101479.38;;;5.35;73.63
9764;BME280;4921;43.214;27.936;2024-03-17T04:34:47;101484.84;;;4.93;75.82
9764;BME280;4921;43.214;27.936;2024-03-17T04:37:13;101494.19;;;5.10;76.38
9764;BME280;4921;43.214;27.936;2024-03-17T04:39:42;101490.41;;;5.25;75.17
9764;BME280;4921;43.214;27.936;2024-03-17T04:42:12;101491.16;;;5.30;74.78
9764;BME280;4921;43.214;27.936;2024-03-17T04:44:40;101501.88;;;5.45;73.96
9764;BME280;4921;43.214;27.936;2024-03-17T04:47:05;101502.53;;;5.19;74.95
9764;BME280;4921;43.214;27.936;2024-03-17T04:49:42;101511.84;;;5.36;75.15
9764;BME280;4921;43.214;27.936;2024-03-17T04:52:08;101500.91;;;5.36;75.07
9764;BME280;4921;43.214;27.936;2024-03-17T04:54:34;101514.63;;;5.50;75.43
9764;BME280;4921;43.214;27.936;2024-03-17T04:57:01;101515.38;;;5.37;76.40
9764;BME280;4921;43.214;27.936;2024-03-17T04:59:27;101508.94;;;5.46;75.44
9764;BME280;4921;43.214;27.936;2024-03-17T05:01:53;101512.25;;;5.62;76.22
9764;BME280;4921;43.214;27.936;2024-03-17T05:04:19;101513.75;;;5.73;76.11
9764;BME280;4921;43.214;27.936;2024-03-17T05:06:45;101507.84;;;5.85;74.97
9764;BME280;4921;43.214;27.936;2024-03-17T05:09:14;101503.50;;;5.84;75.19
9764;BME280;4921;43.214;27.936;2024-03-17T05:11:40;101525.41;;;5.79;76.45
9764;BME280;4921;43.214;27.936;2024-03-17T05:14:06;101521.34;;;5.95;75.69
9764;BME280;4921;43.214;27.936;2024-03-17T05:16:36;101524.59;;;5.97;77.62
9764;BME280;4921;43.214;27.936;2024-03-17T05:19:01;101524.13;;;6.08;77.60
9764;BME280;4921;43.214;27.936;2024-03-17T05:21:27;101520.69;;;6.16;77.97
9764;BME280;4921;43.214;27.936;2024-03-17T05:23:56;101533.59;;;6.29;76.14
9764;BME280;4921;43.214;27.936;2024-03-17T05:26:26;101522.28;;;6.36;76.47
9764;BME280;4921;43.214;27.936;2024-03-17T05:28:51;101527.16;;;6.39;76.74
9764;BME280;4921;43.214;27.936;2024-03-17T05:31:17;101516.38;;;6.29;77.12
9764;BME280;4921;43.214;27.936;2024-03-17T05:33:43;101520.88;;;6.52;77.29
9764;BME280;4921;43.214;27.936;2024-03-17T05:36:09;101534.88;;;6.64;78.02
9764;BME280;4921;43.214;27.936;2024-03-17T05:38:35;101529.13;;;6.79;77.63
9764;BME280;4921;43.214;27.936;2024-03-17T05:41:03;101533.25;;;6.90;77.27
9764;BME280;4921;43.214;27.936;2024-03-17T05:43:30;101533.66;;;6.97;76.42
9764;BME280;4921;43.214;27.936;2024-03-17T05:46:04;101544.44;;;7.07;76.64
9764;BME280;4921;43.214;27.936;2024-03-17T05:48:35;101540.16;;;7.15;76.91
9764;BME280;4921;43.214;27.936;2024-03-17T05:51:03;101542.69;;;7.25;76.40
9764;BME280;4921;43.214;27.936;2024-03-17T05:53:29;101529.09;;;7.20;78.82
9764;BME280;4921;43.214;27.936;2024-03-17T05:56:02;101536.69;;;7.36;79.24
9764;BME280;4921;43.214;27.936;2024-03-17T05:58:28;101529.38;;;7.45;77.73
9764;BME280;4921;43.214;27.936;2024-03-17T06:00:53;101546.47;;;7.64;76.89
9764;BME280;4921;43.214;27.936;2024-03-17T06:03:19;101557.50;;;7.73;78.23
9764;BME280;4921;43.214;27.936;2024-03-17T06:05:45;101561.44;;;7.80;78.43
9764;BME280;4921;43.214;27.936;2024-03-17T06:08:11;101553.72;;;7.82;79.12
9764;BME280;4921;43.214;27.936;2024-03-17T06:10:41;101543.06;;;7.81;79.16
9764;BME280;4921;43.214;27.936;2024-03-17T06:13:07;101562.72;;;7.97;78.47
9764;BME280;4921;43.214;27.936;2024-03-17T06:15:39;101558.72;;;8.03;79.44
9764;BME280;4921;43.214;27.936;2024-03-17T06:18:05;101560.78;;;8.19;77.78
9764;BME280;4921;43.214;27.936;2024-03-17T06:20:34;101555.06;;;8.29;78.43
9764;BME280;4921;43.214;27.936;2024-03-17T06:23:00;101568.22;;;8.41;78.47
9764;BME280;4921;43.214;27.936;2024-03-17T06:25:26;101558.91;;;8.50;76.68
9764;BME280;4921;43.214;27.936;2024-03-17T06:27:51;101566.69;;;8.57;77.72
9764;BME280;4921;43.214;27.936;2024-03-17T06:30:19;101548.88;;;8.46;77.84
9764;BME280;4921;43.214;27.936;2024-03-17T06:32:45;101569.19;;;8.67;76.99
9764;BME280;4921;43.214;27.936;2024-03-17T06:35:14;101571.97;;;8.75;78.13
9764;BME280;4921;43.214;27.936;2024-03-17T06:37:44;101566.69;;;8.87;76.34
9764;BME280;4921;43.214;27.936;2024-03-17T06:40:13;101570.91;;;8.93;76.29
9764;BME280;4921;43.214;27.936;2024-03-17T06:42:39;101560.59;;;8.99;76.38
9764;BME280;4921;43.214;27.936;2024-03-17T06:45:05;101565.94;;;9.04;77.25
9764;BME280;4921;43.214;27.936;2024-03-17T06:47:31;101557.06;;;9.07;76.88
9764;BME280;4921;43.214;27.936;2024-03-17T06:49:56;101562.63;;;9.24;75.36
9764;BME280;4921;43.214;27.936;2024-03-17T06:52:22;101573.47;;;9.38;75.85
9764;BME280;4921;43.214;27.936;2024-03-17T06:54:48;101571.22;;;9.48;76.38
9764;BME280;4921;43.214;27.936;2024-03-17T06:57:16;101558.47;;;9.52;75.73
9764;BME280;4921;43.214;27.936;2024-03-17T06:59:42;101562.22;;;9.73;75.24
9764;BME280;4921;43.214;27.936;2024-03-17T07:02:10;101570.97;;;9.92;74.18
9764;BME280;4921;43.214;27.936;2024-03-17T07:04:38;101575.34;;;9.93;73.07
9764;BME280;4921;43.214;27.936;2024-03-17T07:07:03;101569.69;;;9.98;73.53
9764;BME280;4921;43.214;27.936;2024-03-17T07:09:29;101576.47;;;10.10;73.75
9764;BME280;4921;43.214;27.936;2024-03-17T07:11:54;101565.94;;;9.86;74.27
9764;BME280;4921;43.214;27.936;2024-03-17T07:14:20;101581.47;;;9.82;74.45
9764;BME280;4921;43.214;27.936;2024-03-17T07:16:45;101568.69;;;9.77;74.41
9764;BME280;4921;43.214;27.936;2024-03-17T07:19:11;101564.66;;;9.92;73.62
9764;BME280;4921;43.214;27.936;2024-03-17T07:21:36;101576.97;;;10.29;73.15
9764;BME280;4921;43.214;27.936;2024-03-17T07:24:02;101581.19;;;10.18;72.80
9764;BME280;4921;43.214;27.936;2024-03-17T07:26:30;101574.69;;;10.05;73.83
9764;BME280;4921;43.214;27.936;2024-03-17T07:28:56;101576.47;;;10.44;73.14
9764;BME280;4921;43.214;27.936;2024-03-17T07:31:21;101573.44;;;10.83;71.87
9764;BME280;4921;43.214;27.936;2024-03-17T07:33:47;101569.13;;;11.11;71.56
9764;BME280;4921;43.214;27.936;2024-03-17T07:36:13;101575.06;;;11.22;69.90
9764;BME280;4921;43.214;27.936;2024-03-17T07:38:39;101556.94;;;11.41;68.13
9764;BME280;4921;43.214;27.936;2024-03-17T07:41:06;101574.03;;;11.84;66.10
9764;BME280;4921;43.214;27.936;2024-03-17T07:43:33;101572.56;;;11.58;67.84
9764;BME280;4921;43.214;27.936;2024-03-17T07:46:04;101568.31;;;11.89;66.52
9764;BME280;4921;43.214;27.936;2024-03-17T07:48:31;101573.81;;;12.10;65.21
9764;BME280;4921;43.214;27.936;2024-03-17T07:50:58;101571.72;;;12.27;65.64
9764;BME280;4921;43.214;27.936;2024-03-17T07:53:24;101575.41;;;12.32;65.16
9764;BME280;4921;43.214;27.936;2024-03-17T07:56:08;101567.63;;;12.46;64.68
9764;BME280;4921;43.214;27.936;2024-03-17T07:58:39;101575.59;;;12.59;63.91
9764;BME280;4921;43.214;27.936;2024-03-17T08:03:37;101571.34;;;13.18;71.12
9764;BME280;4921;43.214;27.936;2024-03-17T08:06:06;101563.72;;;13.40;62.12
9764;BME280;4921;43.214;27.936;2024-03-17T08:08:33;101563.97;;;13.10;61.91
9764;BME280;4921;43.214;27.936;2024-03-17T08:10:59;101553.50;;;13.28;61.22
9764;BME280;4921;43.214;27.936;2024-03-17T08:13:26;101557.41;;;13.51;60.43
9764;BME280;4921;43.214;27.936;2024-03-17T08:15:57;101561.88;;;13.56;61.90
9764;BME280;4921;43.214;27.936;2024-03-17T08:18:24;101562.19;;;14.18;60.31
9764;BME280;4921;43.214;27.936;2024-03-17T08:20:49;101560.56;;;14.17;58.39
9764;BME280;4921;43.214;27.936;2024-03-17T08:23:15;101553.03;;;14.29;57.87
9764;BME280;4921;43.214;27.936;2024-03-17T08:25:40;101543.84;;;13.74;59.52
9764;BME280;4921;43.214;27.936;2024-03-17T08:28:06;101555.16;;;13.81;60.03
9764;BME280;4921;43.214;27.936;2024-03-17T08:30:34;101544.06;;;13.81;58.03
9764;BME280;4921;43.214;27.936;2024-03-17T08:33:01;101554.97;;;14.01;58.50
9764;BME280;4921;43.214;27.936;2024-03-17T08:35:26;101545.22;;;14.47;58.12
9764;BME280;4921;43.214;27.936;2024-03-17T08:37:52;101548.34;;;14.18;56.25
9764;BME280;4921;43.214;27.936;2024-03-17T08:40:21;101539.09;;;13.86;58.39
9764;BME280;4921;43.214;27.936;2024-03-17T08:42:48;101546.69;;;13.89;58.24
9764;BME280;4921;43.214;27.936;2024-03-17T08:45:13;101547.56;;;13.78;58.49
9764;BME280;4921;43.214;27.936;2024-03-17T08:47:39;101544.75;;;13.90;57.93
9764;BME280;4921;43.214;27.936;2024-03-17T08:50:05;101546.22;;;13.48;58.54
9764;BME280;4921;43.214;27.936;2024-03-17T08:52:35;101529.72;;;13.91;58.02
9764;BME280;4921;43.214;27.936;2024-03-17T08:55:01;101540.34;;;13.89;57.24
9764;BME280;4921;43.214;27.936;2024-03-17T08:57:29;101542.63;;;13.59;58.85
9764;BME280;4921;43.214;27.936;2024-03-17T08:59:55;101540.41;;;13.65;58.53
9764;BME280;4921;43.214;27.936;2024-03-17T09:02:20;101532.50;;;13.15;60.20
9764;BME280;4921;43.214;27.936;2024-03-17T09:04:49;101545.22;;;13.16;58.78
9764;BME280;4921;43.214;27.936;2024-03-17T09:07:14;101545.69;;;13.06;59.10
9764;BME280;4921;43.214;27.936;2024-03-17T09:09:43;101543.78;;;12.98;60.51
9764;BME280;4921;43.214;27.936;2024-03-17T09:12:08;101536.19;;;13.31;59.42
9764;BME280;4921;43.214;27.936;2024-03-17T09:14:34;101534.97;;;13.16;59.78
9764;BME280;4921;43.214;27.936;2024-03-17T09:17:00;101538.47;;;12.93;61.29
9764;BME280;4921;43.214;27.936;2024-03-17T09:19:26;101522.34;;;12.71;61.99
9764;BME280;4921;43.214;27.936;2024-03-17T09:21:54;101527.19;;;12.74;61.57
9764;BME280;4921;43.214;27.936;2024-03-17T09:24:20;101522.66;;;12.57;62.22
9764;BME280;4921;43.214;27.936;2024-03-17T09:26:46;101517.22;;;13.05;60.93
9764;BME280;4921;43.214;27.936;2024-03-17T09:29:13;101515.09;;;13.39;60.11
9764;BME280;4921;43.214;27.936;2024-03-17T09:31:40;101517.09;;;13.14;60.62
9764;BME280;4921;43.214;27.936;2024-03-17T09:34:07;101510.19;;;13.20;60.82
9764;BME280;4921;43.214;27.936;2024-03-17T09:36:33;101518.25;;;13.25;60.20
9764;BME280;4921;43.214;27.936;2024-03-17T09:38:58;101518.13;;;13.33;59.63
9764;BME280;4921;43.214;27.936;2024-03-17T09:41:26;101519.81;;;13.62;59.59
9764;BME280;4921;43.214;27.936;2024-03-17T09:43:56;101507.16;;;12.89;60.59
9764;BME280;4921;43.214;27.936;2024-03-17T09:46:24;101513.38;;;13.22;60.69
9764;BME280;4921;43.214;27.936;2024-03-17T09:48:51;101494.59;;;13.27;60.82
9764;BME280;4921;43.214;27.936;2024-03-17T09:51:22;101494.03;;;12.98;61.81
9764;BME280;4921;43.214;27.936;2024-03-17T09:53:49;101513.13;;;12.91;61.02
9764;BME280;4921;43.214;27.936;2024-03-17T09:56:16;101503.59;;;12.88;61.25
9764;BME280;4921;43.214;27.936;2024-03-17T09:58:50;101513.38;;;12.98;62.42
9764;BME280;4921;43.214;27.936;2024-03-17T10:01:16;101503.44;;;13.45;60.54
9764;BME280;4921;43.214;27.936;2024-03-17T10:03:52;101508.91;;;13.29;59.66
9764;BME280;4921;43.214;27.936;2024-03-17T10:06:21;101488.50;;;13.34;60.18
9764;BME280;4921;43.214;27.936;2024-03-17T10:08:51;101497.72;;;13.26;60.77
9764;BME280;4921;43.214;27.936;2024-03-17T10:11:19;101505.72;;;12.47;62.73
9764;BME280;4921;43.214;27.936;2024-03-17T10:13:47;101501.00;;;11.82;65.00
9764;BME280;4921;43.214;27.936;2024-03-17T10:16:25;101503.81;;;11.94;64.85
9764;BME280;4921;43.214;27.936;2024-03-17T10:19:05;101504.56;;;12.36;63.62
9764;BME280;4921;43.214;27.936;2024-03-17T10:21:32;101480.59;;;12.27;64.27
9764;BME280;4921;43.214;27.936;2024-03-17T10:24:20;101492.72;;;12.59;63.11
9764;BME280;4921;43.214;27.936;2024-03-17T10:26:51;101499.41;;;12.46;62.93
9764;BME280;4921;43.214;27.936;2024-03-17T10:29:25;101498.72;;;12.49;63.92
9764;BME280;4921;43.214;27.936;2024-03-17T10:31:55;101492.25;;;12.00;65.39
9764;BME280;4921;43.214;27.936;2024-03-17T10:34:22;101494.88;;;11.97;65.54
9764;BME280;4921;43.214;27.936;2024-03-17T10:37:05;101495.69;;;12.30;64.85
9764;BME280;4921;43.214;27.936;2024-03-17T10:39:31;101495.91;;;12.25;64.25
9764;BME280;4921;43.214;27.936;2024-03-17T10:42:00;101487.94;;;11.91;65.57
9764;BME280;4921;43.214;27.936;2024-03-17T10:44:36;101494.03;;;11.84;66.33
9764;BME280;4921;43.214;27.936;2024-03-17T10:47:03;101495.78;;;11.68;67.64
9764;BME280;4921;43.214;27.936;2024-03-17T10:49:36;101491.53;;;11.71;68.39
9764;BME280;4921;43.214;27.936;2024-03-17T10:52:07;101475.69;;;11.18;69.36
9764;BME280;4921;43.214;27.936;2024-03-17T10:54:34;101482.84;;;10.81;69.95
9764;BME280;4921;43.214;27.936;2024-03-17T10:59:48;101464.28;;;10.70;70.26
9764;BME280;4921;43.214;27.936;2024-03-17T11:02:24;101469.13;;;10.73;72.04
9764;BME280;4921;43.214;27.936;2024-03-17T11:04:55;101478.34;;;11.06;70.86
9764;BME280;4921;43.214;27.936;2024-03-17T11:07:21;101472.94;;;11.18;69.52
9764;BME280;4921;43.214;27.936;2024-03-17T11:09:48;101466.53;;;11.26;68.50
9764;BME280;4921;43.214;27.936;2024-03-17T11:12:40;101457.91;;;10.78;70.44
9764;BME280;4921;43.214;27.936;2024-03-17T11:17:47;101456.59;;;10.84;69.25
9764;BME280;4921;43.214;27.936;2024-03-17T11:20:31;101460.69;;;11.28;67.78
9764;BME280;4921;43.214;27.936;2024-03-17T11:23:00;101434.25;;;11.06;68.25
9764;BME280;4921;43.214;27.936;2024-03-17T11:27:55;101436.28;;;11.38;68.23
9764;BME280;4921;43.214;27.936;2024-03-17T11:39:02;101420.34;;;11.85;66.59
9764;BME280;4921;43.214;27.936;2024-03-17T11:47:13;101427.84;;;12.08;64.82
9764;BME280;4921;43.214;27.936;2024-03-17T11:49:40;101419.47;;;12.17;64.88
9764;BME280;4921;43.214;27.936;2024-03-17T11:52:15;101409.75;;;12.44;64.13
9764;BME280;4921;43.214;27.936;2024-03-17T11:54:45;101407.31;;;12.66;63.41
9764;BME280;4921;43.214;27.936;2024-03-17T11:57:17;101411.34;;;12.93;62.54
9764;BME280;4921;43.214;27.936;2024-03-17T11:59:47;101411.03;;;12.46;63.39
9764;BME280;4921;43.214;27.936;2024-03-17T12:02:18;101391.78;;;12.38;64.64
9764;BME280;4921;43.214;27.936;2024-03-17T12:04:44;101390.88;;;12.46;63.61
9764;BME280;4921;43.214;27.936;2024-03-17T12:07:15;101403.28;;;12.40;64.02
9764;BME280;4921;43.214;27.936;2024-03-17T12:09:42;101395.22;;;12.35;64.41
9764;BME280;4921;43.214;27.936;2024-03-17T12:12:10;101392.47;;;12.35;64.14
9764;BME280;4921;43.214;27.936;2024-03-17T12:14:37;101404.22;;;12.56;64.29
9764;BME280;4921;43.214;27.936;2024-03-17T12:17:08;101378.31;;;12.36;64.50
9764;BME280;4921;43.214;27.936;2024-03-17T12:19:35;101404.91;;;12.53;63.67
9764;BME280;4921;43.214;27.936;2024-03-17T12:22:02;101400.44;;;12.60;63.37
9764;BME280;4921;43.214;27.936;2024-03-17T12:24:31;101387.88;;;12.39;63.65
9764;BME280;4921;43.214;27.936;2024-03-17T12:26:58;101394.38;;;12.10;64.76
9764;BME280;4921;43.214;27.936;2024-03-17T12:29:38;101384.63;;;11.68;66.66
9764;BME280;4921;43.214;27.936;2024-03-17T12:34:37;101395.56;;;11.76;65.47
9764;BME280;4921;43.214;27.936;2024-03-17T12:37:03;101400.97;;;11.52;66.93
9764;BME280;4921;43.214;27.936;2024-03-17T12:39:33;101400.69;;;11.86;67.05
9764;BME280;4921;43.214;27.936;2024-03-17T12:44:54;101386.41;;;11.84;66.26
9764;BME280;4921;43.214;27.936;2024-03-17T12:47:21;101389.34;;;11.26;68.34
9764;BME280;4921;43.214;27.936;2024-03-17T12:49:54;101387.47;;;11.39;68.07
9764;BME280;4921;43.214;27.936;2024-03-17T12:52:23;101371.88;;;10.81;70.49
9764;BME280;4921;43.214;27.936;2024-03-17T12:57:49;101373.31;;;10.58;72.11
9764;BME280;4921;43.214;27.936;2024-03-17T13:03:33;101358.84;;;10.90;71.12
9764;BME280;4921;43.214;27.936;2024-03-17T13:06:00;101347.56;;;10.83;70.66
9764;BME280;4921;43.214;27.936;2024-03-17T13:08:28;101363.75;;;10.55;72.21
9764;BME280;4921;43.214;27.936;2024-03-17T13:10:54;101361.53;;;10.49;72.55
9764;BME280;4921;43.214;27.936;2024-03-17T13:13:19;101364.09;;;10.83;71.35
9764;BME280;4921;43.214;27.936;2024-03-17T13:15:45;101359.75;;;10.73;70.89
9764;BME280;4921;43.214;27.936;2024-03-17T13:18:16;101367.63;;;10.83;71.73
9764;BME280;4921;43.214;27.936;2024-03-17T13:20:43;101354.53;;;10.80;70.66
9764;BME280;4921;43.214;27.936;2024-03-17T13:23:09;101354.84;;;10.58;72.50
9764;BME280;4921;43.214;27.936;2024-03-17T13:25:34;101351.22;;;10.66;73.04
9764;BME280;4921;43.214;27.936;2024-03-17T13:28:02;101339.72;;;10.64;71.66
9764;BME280;4921;43.214;27.936;2024-03-17T13:30:29;101346.81;;;10.45;73.06
9764;BME280;4921;43.214;27.936;2024-03-17T13:32:55;101349.13;;;10.63;71.58
9764;BME280;4921;43.214;27.936;2024-03-17T13:35:26;101353.22;;;10.57;72.35
9764;BME280;4921;43.214;27.936;2024-03-17T13:37:52;101342.78;;;10.42;74.57
9764;BME280;4921;43.214;27.936;2024-03-17T13:40:20;101339.59;;;10.61;74.03
9764;BME280;4921;43.214;27.936;2024-03-17T13:42:47;101333.38;;;10.43;73.62